KAHQ

Wahoo Municipal Airport

Wahoo, Nebraska, USA
METAR KAHQ 141635Z AUTO 00000KT 10SM CLR 00/M02 A3030 RMK AO2 T10031025
Observed Flight Rules
Dec-14 @ 16:35 UTC (30 minutes ago) Visual Flight Rules
Visibility Clouds
10 miles
  • Clear skies
Temperatures Readings
Current -0°C / 32°F
Dewpoint -3°C / 27°F
Humidity 80%
Altimeter 30.3" Hg
Pressure 1026 hPa
Elevation 374
METAR KAHQ 141635Z AUTO 00000KT 10SM CLR 00/M02 A3030 RMK AO2 T10031025
Observed Flight Rules
Dec-14 @ 16:35 UTC
(30 minutes ago)
VFR
Clouds
  • Clear skies
Temperature Dewpoint
-0°C / 32°F -3°C / 27°F
Humidity Altimeter Pressure
80% 30.3" Hg 1026 hPa